Time;durP1;ratioP1;P1;durP2;ratioP2;P2;SDS_P1;SDS_P2;PMS_P1;PMS_P2;Temp;Humidity;BMP_temperature;BMP_pressure;BME280_temperature;BME280_humidity;BME280_pressure;Samples;Min_cycle;Max_cycle;Signal;HPM_P1;HPM_P2
2022/04/25 00:01:18;;;;;;;;;;;11.20;99.90;;;;;;5081253;28;19924;-70
2022/04/25 00:03:45;;;;;;;;;;;11.30;99.90;;;;;;5084625;28;19928;-72
2022/04/25 00:06:12;;;;;;;;;;;11.30;99.90;;;;;;5082849;28;20398;-69
2022/04/25 00:08:39;;;;;;;;;;;11.30;99.90;;;;;;5072403;28;19928;-69
2022/04/25 00:11:06;;;;;;;;;;;11.30;99.90;;;;;;5080745;28;20378;-69
2022/04/25 00:13:32;;;;;;;;;;;11.30;99.90;;;;;;5078248;28;20002;-70
2022/04/25 00:15:59;;;;;;;;;;;11.30;99.90;;;;;;5080128;28;19932;-70
2022/04/25 00:18:25;;;;;;;;;;;11.30;99.90;;;;;;5073384;28;20475;-70
2022/04/25 00:20:52;;;;;;;;;;;11.30;99.90;;;;;;5080471;28;19992;-69
2022/04/25 00:23:20;;;;;;;;;;;11.30;99.90;;;;;;5074881;28;19932;-70
2022/04/25 00:25:46;;;;;;;;;;;11.40;99.90;;;;;;5077713;28;19954;-71
2022/04/25 00:28:13;;;;;;;;;;;11.40;99.90;;;;;;5082047;28;19984;-70
2022/04/25 00:30:39;;;;;;;;;;;11.40;99.90;;;;;;5080858;28;19925;-70
2022/04/25 00:33:06;;;;;;;;;;;11.50;99.90;;;;;;5085098;28;19955;-69
2022/04/25 00:35:32;;;;;;;;;;;11.40;99.90;;;;;;5073040;28;19936;-71
2022/04/25 00:37:59;;;;;;;;;;;11.30;99.90;;;;;;5074607;28;19928;-69
2022/04/25 00:40:27;;;;;;;;;;;10.90;99.90;;;;;;5085126;28;20405;-68
2022/04/25 00:42:53;;;;;;;;;;;10.50;99.90;;;;;;5078681;28;20534;-69
2022/04/25 00:45:20;;;;;;;;;;;10.20;99.90;;;;;;5085676;28;19932;-69
2022/04/25 00:47:46;;;;;;;;;;;10.00;99.90;;;;;;5084454;28;20057;-69
2022/04/25 00:50:14;;;;;;;;;;;9.80;99.90;;;;;;5082505;28;19989;-69
2022/04/25 00:52:41;;;;;;;;;;;9.80;99.90;;;;;;5076825;28;19947;-69
2022/04/25 00:55:09;;;;;;;;;;;9.70;99.90;;;;;;5078882;28;19928;-69
2022/04/25 00:57:37;;;;;;;;;;;9.70;99.90;;;;;;5086750;28;19931;-69
2022/04/25 01:00:05;;;;;;;;;;;9.70;99.90;;;;;;5081607;28;19936;-70
2022/04/25 01:02:31;;;;;;;;;;;9.70;99.90;;;;;;5074502;28;20571;-70
2022/04/25 01:04:58;;;;;;;;;;;9.70;99.90;;;;;;5077565;28;19928;-70
2022/04/25 01:07:25;;;;;;;;;;;9.60;99.90;;;;;;5083201;28;20367;-69
2022/04/25 01:09:51;;;;;;;;;;;9.60;99.90;;;;;;5084240;28;19928;-69
2022/04/25 01:12:18;;;;;;;;;;;9.50;99.90;;;;;;5087183;28;19969;-70
2022/04/25 01:14:45;;;;;;;;;;;9.40;99.90;;;;;;5084290;28;20330;-69
2022/04/25 01:17:12;;;;;;;;;;;9.40;99.90;;;;;;5077298;28;20278;-69
2022/04/25 01:19:38;;;;;;;;;;;9.30;99.90;;;;;;5080411;28;19928;-69
2022/04/25 01:22:08;;;;;;;;;;;9.30;99.90;;;;;;5080543;28;19932;-69
2022/04/25 01:27:20;;;;;;;;;;;9.30;99.90;;;;;;5069917;28;20018;-70
2022/04/25 01:29:48;;;;;;;;;;;9.20;99.90;;;;;;5070444;28;19939;-70
2022/04/25 01:32:15;;;;;;;;;;;9.10;99.90;;;;;;5082443;28;19982;-69
2022/04/25 01:34:41;;;;;;;;;;;9.10;99.90;;;;;;5081135;28;19928;-70
2022/04/25 01:37:08;;;;;;;;;;;9.10;99.90;;;;;;5086024;28;19993;-70
2022/04/25 01:39:37;;;;;;;;;;;9.10;99.90;;;;;;5076960;28;20259;-69
2022/04/25 01:42:04;;;;;;;;;;;9.10;99.90;;;;;;5075369;28;20263;-69
2022/04/25 01:44:30;;;;;;;;;;;9.10;99.90;;;;;;5078090;28;19928;-69
2022/04/25 01:46:57;;;;;;;;;;;9.10;99.90;;;;;;5075464;28;20373;-70
2022/04/25 01:49:24;;;;;;;;;;;9.00;99.90;;;;;;5079019;28;20027;-69
2022/04/25 01:51:50;;;;;;;;;;;9.00;99.90;;;;;;5083490;28;20434;-69
2022/04/25 01:54:25;;;;;;;;;;;8.90;99.90;;;;;;5081148;28;19997;-69
2022/04/25 01:56:53;;;;;;;;;;;8.80;99.90;;;;;;5084978;28;20000;-70
2022/04/25 01:59:20;;;;;;;;;;;8.80;99.90;;;;;;5079672;28;20077;-70
2022/04/25 02:01:46;;;;;;;;;;;8.80;99.90;;;;;;5084063;28;20013;-70
2022/04/25 02:04:13;;;;;;;;;;;8.80;99.90;;;;;;5079915;28;19932;-70
2022/04/25 02:06:39;;;;;;;;;;;8.80;99.90;;;;;;5077174;28;20306;-69
2022/04/25 02:09:06;;;;;;;;;;;8.70;99.90;;;;;;5073863;28;19932;-71
2022/04/25 02:11:32;;;;;;;;;;;8.70;99.90;;;;;;5073933;28;19928;-72
2022/04/25 02:14:00;;;;;;;;;;;8.60;99.90;;;;;;5082453;28;20278;-72
2022/04/25 02:16:27;;;;;;;;;;;8.60;99.90;;;;;;5076350;28;20019;-72
2022/04/25 02:18:54;;;;;;;;;;;8.60;99.90;;;;;;5081802;28;19932;-71
2022/04/25 02:21:21;;;;;;;;;;;8.50;99.90;;;;;;5075455;28;19935;-71
2022/04/25 02:23:48;;;;;;;;;;;8.50;99.90;;;;;;5073297;28;19924;-71
2022/04/25 02:26:14;;;;;;;;;;;8.60;99.90;;;;;;5083904;28;20447;-72
2022/04/25 02:28:41;;;;;;;;;;;8.50;99.90;;;;;;5078605;28;19928;-71
2022/04/25 02:31:09;;;;;;;;;;;8.50;99.90;;;;;;5077966;28;19990;-72
2022/04/25 02:33:36;;;;;;;;;;;8.50;99.90;;;;;;5083648;28;20476;-72
2022/04/25 02:36:04;;;;;;;;;;;8.60;99.90;;;;;;5073237;28;20023;-72
2022/04/25 02:38:31;;;;;;;;;;;8.50;99.90;;;;;;5082476;28;19924;-71
2022/04/25 02:41:05;;;;;;;;;;;8.50;99.90;;;;;;5082585;28;20396;-69
2022/04/25 02:43:32;;;;;;;;;;;8.50;99.90;;;;;;5075639;28;19929;-69
2022/04/25 02:45:59;;;;;;;;;;;8.50;99.90;;;;;;5070948;28;20023;-69
2022/04/25 02:48:27;;;;;;;;;;;8.50;99.90;;;;;;5077409;28;20565;-69
2022/04/25 02:50:53;;;;;;;;;;;8.50;99.90;;;;;;5070103;28;20512;-69
2022/04/25 02:53:20;;;;;;;;;;;8.50;99.90;;;;;;5074979;28;19991;-69
2022/04/25 02:55:46;;;;;;;;;;;8.50;99.90;;;;;;5077873;28;20676;-72
2022/04/25 02:58:14;;;;;;;;;;;8.50;99.90;;;;;;5077006;28;19940;-71
2022/04/25 03:00:41;;;;;;;;;;;8.50;99.90;;;;;;5080872;28;20341;-69
2022/04/25 03:03:07;;;;;;;;;;;8.40;99.90;;;;;;5079606;28;20372;-71
2022/04/25 03:05:36;;;;;;;;;;;8.40;99.90;;;;;;5078145;28;19932;-72
2022/04/25 03:08:03;;;;;;;;;;;8.40;99.90;;;;;;5080844;28;19924;-71
2022/04/25 03:10:30;;;;;;;;;;;8.30;99.90;;;;;;5080726;28;19924;-71
2022/04/25 03:12:56;;;;;;;;;;;8.40;99.90;;;;;;5079400;28;20374;-71
2022/04/25 03:15:23;;;;;;;;;;;8.30;99.90;;;;;;5074713;28;19936;-71
2022/04/25 03:17:49;;;;;;;;;;;8.20;99.90;;;;;;5069979;28;20007;-70
2022/04/25 03:20:16;;;;;;;;;;;8.10;99.90;;;;;;5071915;28;20227;-70
2022/04/25 03:22:44;;;;;;;;;;;8.10;99.90;;;;;;5069309;28;19989;-72
2022/04/25 03:25:11;;;;;;;;;;;8.10;99.90;;;;;;5074154;28;20007;-69
2022/04/25 03:27:37;;;;;;;;;;;8.10;99.90;;;;;;5081728;28;20022;-69
2022/04/25 03:30:04;;;;;;;;;;;8.10;99.90;;;;;;5045536;28;783022;-72
2022/04/25 03:32:31;;;;;;;;;;;8.00;99.90;;;;;;5073231;28;19972;-71
2022/04/25 03:34:58;;;;;;;;;;;8.00;99.90;;;;;;5073555;28;20334;-71
2022/04/25 03:37:26;;;;;;;;;;;8.00;99.90;;;;;;5084859;28;19940;-71
2022/04/25 03:39:53;;;;;;;;;;;8.00;99.90;;;;;;5077992;28;19924;-71
2022/04/25 03:42:20;;;;;;;;;;;7.90;99.90;;;;;;5071355;28;19928;-71
2022/04/25 03:44:46;;;;;;;;;;;7.90;99.90;;;;;;5078819;28;19932;-71
2022/04/25 03:47:13;;;;;;;;;;;8.00;99.90;;;;;;5070820;28;19936;-70
2022/04/25 03:49:41;;;;;;;;;;;8.00;99.90;;;;;;5070026;28;19932;-69
2022/04/25 03:52:08;;;;;;;;;;;8.00;99.90;;;;;;5083359;28;21215;-71
2022/04/25 03:57:20;;;;;;;;;;;8.10;99.90;;;;;;5085822;28;19942;-70
2022/04/25 03:59:46;;;;;;;;;;;8.20;99.90;;;;;;5080436;28;19981;-70
2022/04/25 04:02:13;;;;;;;;;;;8.20;99.90;;;;;;5082150;28;19932;-71
2022/04/25 04:04:39;;;;;;;;;;;8.30;99.90;;;;;;5076516;28;19936;-71
2022/04/25 04:07:06;;;;;;;;;;;8.30;99.90;;;;;;5087785;28;20348;-71
2022/04/25 04:09:49;;;;;;;;;;;8.30;99.90;;;;;;5079443;28;19928;-71
2022/04/25 04:12:15;;;;;;;;;;;8.30;99.90;;;;;;5083507;28;19970;-72
2022/04/25 04:14:44;;;;;;;;;;;8.30;99.90;;;;;;5076490;28;19997;-72
2022/04/25 04:17:10;;;;;;;;;;;8.30;99.90;;;;;;5080746;28;19932;-72
2022/04/25 04:19:37;;;;;;;;;;;8.40;99.90;;;;;;5075987;28;20004;-71
2022/04/25 04:22:05;;;;;;;;;;;8.40;99.90;;;;;;5080626;28;19928;-72
2022/04/25 04:24:31;;;;;;;;;;;8.40;99.90;;;;;;5072816;28;20381;-71
2022/04/25 04:27:01;;;;;;;;;;;8.30;99.90;;;;;;5084704;28;20040;-71
2022/04/25 04:29:29;;;;;;;;;;;8.30;99.90;;;;;;5076703;28;20377;-70
2022/04/25 04:31:57;;;;;;;;;;;8.40;99.90;;;;;;5078536;28;19932;-70
2022/04/25 04:34:24;;;;;;;;;;;8.40;99.90;;;;;;5083629;28;19931;-70
2022/04/25 04:36:50;;;;;;;;;;;8.50;99.90;;;;;;5078983;28;20460;-70
2022/04/25 04:39:17;;;;;;;;;;;8.50;99.90;;;;;;5080020;28;19989;-68
2022/04/25 04:41:44;;;;;;;;;;;8.50;99.90;;;;;;5075806;28;19986;-70
2022/04/25 04:44:10;;;;;;;;;;;8.50;99.90;;;;;;5081106;28;19928;-69
2022/04/25 04:46:37;;;;;;;;;;;8.60;99.90;;;;;;5085206;28;19944;-69
2022/04/25 04:49:04;;;;;;;;;;;8.60;99.90;;;;;;5083708;28;19924;-69
2022/04/25 04:51:31;;;;;;;;;;;8.60;99.90;;;;;;5075923;28;19928;-69
2022/04/25 04:53:59;;;;;;;;;;;8.60;99.90;;;;;;5079896;28;20354;-69
2022/04/25 04:56:26;;;;;;;;;;;8.70;99.90;;;;;;5085551;28;19953;-69
2022/04/25 04:58:52;;;;;;;;;;;8.70;99.90;;;;;;5081426;28;20397;-69
2022/04/25 05:01:19;;;;;;;;;;;8.70;99.90;;;;;;5076273;28;20001;-69
2022/04/25 05:03:45;;;;;;;;;;;8.70;99.90;;;;;;5081424;28;19936;-69
2022/04/25 05:06:13;;;;;;;;;;;8.70;99.90;;;;;;5082299;28;20000;-70
2022/04/25 05:08:40;;;;;;;;;;;8.70;99.90;;;;;;5077115;28;20296;-69
2022/04/25 05:11:08;;;;;;;;;;;8.70;99.90;;;;;;5083486;28;19928;-69
2022/04/25 05:13:35;;;;;;;;;;;8.80;99.90;;;;;;5074144;28;20007;-70
2022/04/25 05:16:02;;;;;;;;;;;8.80;99.90;;;;;;5082332;28;19932;-70
2022/04/25 05:18:32;;;;;;;;;;;8.80;99.90;;;;;;5084817;28;20019;-69
2022/04/25 05:20:58;;;;;;;;;;;8.80;99.90;;;;;;5081012;28;19995;-70
2022/04/25 05:23:26;;;;;;;;;;;8.80;99.90;;;;;;5078538;28;20373;-70
2022/04/25 05:25:53;;;;;;;;;;;8.90;99.90;;;;;;5082557;28;19924;-69
2022/04/25 05:28:20;;;;;;;;;;;8.90;99.90;;;;;;5076008;28;20033;-68
2022/04/25 05:30:46;;;;;;;;;;;8.90;99.90;;;;;;5077909;28;19936;-69
2022/04/25 05:33:13;;;;;;;;;;;8.90;99.90;;;;;;5074114;28;19932;-69
2022/04/25 05:35:41;;;;;;;;;;;8.90;99.90;;;;;;5076906;28;19989;-69
2022/04/25 05:38:10;;;;;;;;;;;8.90;99.90;;;;;;5076924;28;19928;-69
2022/04/25 05:40:38;;;;;;;;;;;9.00;99.90;;;;;;5079006;28;19958;-69
2022/04/25 05:43:06;;;;;;;;;;;9.10;99.90;;;;;;5079815;28;19999;-69
2022/04/25 05:45:33;;;;;;;;;;;9.10;99.90;;;;;;5074195;28;19932;-68
2022/04/25 05:48:00;;;;;;;;;;;9.10;99.90;;;;;;5067640;28;19994;-69
2022/04/25 05:53:12;;;;;;;;;;;9.10;99.90;;;;;;5072578;28;20041;-68
2022/04/25 05:55:41;;;;;;;;;;;9.10;99.90;;;;;;5071361;28;19924;-69
2022/04/25 05:58:08;;;;;;;;;;;9.10;99.90;;;;;;5077248;28;20094;-69
2022/04/25 06:00:35;;;;;;;;;;;9.10;99.90;;;;;;5078070;28;19928;-68
2022/04/25 06:03:02;;;;;;;;;;;9.00;99.90;;;;;;5071731;28;20004;-68
2022/04/25 06:05:29;;;;;;;;;;;9.10;99.90;;;;;;5079891;28;20348;-68
2022/04/25 06:07:55;;;;;;;;;;;9.10;99.90;;;;;;5082737;28;19977;-68
2022/04/25 06:10:23;;;;;;;;;;;9.20;99.90;;;;;;5079106;28;19924;-68
2022/04/25 06:12:52;;;;;;;;;;;9.30;99.90;;;;;;5081118;28;19946;-68
2022/04/25 06:15:21;;;;;;;;;;;9.40;99.90;;;;;;5079245;28;20510;-68
2022/04/25 06:17:47;;;;;;;;;;;9.40;99.90;;;;;;5078380;28;19977;-69
2022/04/25 06:20:14;;;;;;;;;;;9.50;99.90;;;;;;5075352;28;21882;-71
2022/04/25 06:22:51;;;;;;;;;;;9.60;99.90;;;;;;5081310;28;20500;-71
2022/04/25 06:25:17;;;;;;;;;;;9.60;99.90;;;;;;5083130;28;20056;-71
2022/04/25 06:27:44;;;;;;;;;;;9.70;99.90;;;;;;5072640;28;19932;-71
2022/04/25 06:30:12;;;;;;;;;;;9.80;99.90;;;;;;5079222;28;19949;-71
2022/04/25 06:32:39;;;;;;;;;;;9.90;99.90;;;;;;5083610;28;20376;-71
2022/04/25 06:35:07;;;;;;;;;;;10.00;99.90;;;;;;5079373;28;20073;-72
2022/04/25 06:37:34;;;;;;;;;;;10.10;99.90;;;;;;5080228;28;19928;-70
2022/04/25 06:40:00;;;;;;;;;;;10.20;99.90;;;;;;5080966;28;20179;-70
2022/04/25 06:42:27;;;;;;;;;;;10.30;99.90;;;;;;5072947;28;19924;-70
2022/04/25 06:44:53;;;;;;;;;;;10.40;99.90;;;;;;5077110;28;20390;-71
2022/04/25 06:47:21;;;;;;;;;;;10.60;99.90;;;;;;5075548;28;19931;-70
2022/04/25 06:49:48;;;;;;;;;;;10.70;99.90;;;;;;5081795;28;19935;-70
2022/04/25 06:52:15;;;;;;;;;;;10.80;99.90;;;;;;5071404;28;19936;-70
2022/04/25 06:54:41;;;;;;;;;;;10.90;99.90;;;;;;5075194;28;20749;-70
2022/04/25 06:57:08;;;;;;;;;;;11.00;99.90;;;;;;5071424;28;20358;-70
2022/04/25 06:59:35;;;;;;;;;;;11.10;99.90;;;;;;5075504;28;19935;-70
2022/04/25 07:02:01;;;;;;;;;;;11.20;99.90;;;;;;5083937;28;20499;-70
2022/04/25 07:04:29;;;;;;;;;;;11.40;99.90;;;;;;5073991;28;19989;-70
2022/04/25 07:06:56;;;;;;;;;;;11.50;99.90;;;;;;5081167;28;20459;-70
2022/04/25 07:09:22;;;;;;;;;;;11.60;99.90;;;;;;5082941;28;19928;-70
2022/04/25 07:11:49;;;;;;;;;;;11.70;99.90;;;;;;5068793;28;20377;-70
2022/04/25 07:14:16;;;;;;;;;;;11.80;99.90;;;;;;5077796;28;19928;-69
2022/04/25 07:16:44;;;;;;;;;;;11.90;99.90;;;;;;5080790;28;19928;-70
2022/04/25 07:19:11;;;;;;;;;;;11.90;99.90;;;;;;5076820;28;19979;-70
2022/04/25 07:29:52;;;;;;;;;;;12.10;99.90;;;;;;5068446;28;19928;-70
2022/04/25 07:32:20;;;;;;;;;;;12.10;99.90;;;;;;5078511;28;19927;-70
2022/04/25 07:34:47;;;;;;;;;;;12.10;99.90;;;;;;5075533;28;19924;-70
2022/04/25 07:37:16;;;;;;;;;;;12.10;99.90;;;;;;5080282;28;19924;-70
2022/04/25 07:39:42;;;;;;;;;;;12.10;99.90;;;;;;5075101;28;20013;-70
2022/04/25 07:42:09;;;;;;;;;;;12.10;99.90;;;;;;5070836;28;20328;-71
2022/04/25 07:44:35;;;;;;;;;;;12.20;99.90;;;;;;5084753;28;19924;-70
2022/04/25 07:47:02;;;;;;;;;;;12.20;99.90;;;;;;5078274;28;19954;-69
2022/04/25 07:49:28;;;;;;;;;;;12.20;99.90;;;;;;5073072;28;19924;-69
2022/04/25 07:51:55;;;;;;;;;;;12.30;99.90;;;;;;5077348;28;19997;-70
2022/04/25 07:54:23;;;;;;;;;;;12.30;99.90;;;;;;5081077;28;19928;-71
2022/04/25 07:56:51;;;;;;;;;;;12.40;99.90;;;;;;5075165;28;19929;-70
2022/04/25 07:59:18;;;;;;;;;;;12.30;99.90;;;;;;5068790;28;19971;-71
2022/04/25 08:01:45;;;;;;;;;;;12.30;99.90;;;;;;5081113;28;20023;-71
2022/04/25 08:04:12;;;;;;;;;;;12.30;99.90;;;;;;5079704;28;20024;-70
2022/04/25 08:06:39;;;;;;;;;;;12.20;99.90;;;;;;5077815;28;19946;-71
2022/04/25 08:09:05;;;;;;;;;;;12.30;99.90;;;;;;5080793;28;19928;-71
2022/04/25 08:11:34;;;;;;;;;;;12.30;99.90;;;;;;5077218;28;19986;-70
2022/04/25 08:19:30;;;;;;;;;;;12.70;99.90;;;;;;5079094;28;19927;-71
2022/04/25 08:21:58;;;;;;;;;;;12.80;99.90;;;;;;5079102;28;19976;-70
2022/04/25 08:24:24;;;;;;;;;;;12.90;99.90;;;;;;5080862;28;20045;-70
2022/04/25 08:26:53;;;;;;;;;;;13.10;99.90;;;;;;5087801;28;19924;-71
2022/04/25 08:29:20;;;;;;;;;;;13.10;99.90;;;;;;5080126;28;20003;-70
2022/04/25 08:31:46;;;;;;;;;;;13.30;99.90;;;;;;5082164;28;20346;-71
2022/04/25 08:34:14;;;;;;;;;;;13.40;99.90;;;;;;5071968;28;20262;-70
2022/04/25 08:36:40;;;;;;;;;;;13.50;99.90;;;;;;5082969;28;19928;-70
2022/04/25 08:39:07;;;;;;;;;;;13.70;99.90;;;;;;5073814;28;20459;-69
2022/04/25 08:41:36;;;;;;;;;;;13.70;99.90;;;;;;5082027;28;19936;-70
2022/04/25 08:44:06;;;;;;;;;;;13.80;99.90;;;;;;5079182;28;19951;-70
2022/04/25 08:46:34;;;;;;;;;;;13.80;99.90;;;;;;5074390;28;19935;-69
2022/04/25 08:49:03;;;;;;;;;;;13.70;99.90;;;;;;5077293;28;19943;-70
2022/04/25 08:51:30;;;;;;;;;;;13.50;99.90;;;;;;5083316;28;19935;-70
2022/04/25 08:53:57;;;;;;;;;;;13.50;99.90;;;;;;5088937;28;20526;-70
2022/04/25 08:56:25;;;;;;;;;;;13.60;99.90;;;;;;5084484;28;19939;-70
2022/04/25 08:58:52;;;;;;;;;;;13.50;99.90;;;;;;5077074;28;19925;-70
2022/04/25 09:01:20;;;;;;;;;;;13.40;99.90;;;;;;5081824;28;19973;-70
2022/04/25 09:03:46;;;;;;;;;;;13.30;99.90;;;;;;5076457;28;19924;-70
2022/04/25 09:06:13;;;;;;;;;;;13.40;99.90;;;;;;5077010;28;20297;-70
2022/04/25 09:08:42;;;;;;;;;;;13.30;99.90;;;;;;5083160;28;19924;-70
2022/04/25 09:13:53;;;;;;;;;;;13.50;99.90;;;;;;5076596;28;20368;-71
2022/04/25 09:16:21;;;;;;;;;;;13.50;99.90;;;;;;5075854;28;19928;-71
2022/04/25 09:18:47;;;;;;;;;;;13.70;99.90;;;;;;5077070;28;20304;-71
2022/04/25 09:21:14;;;;;;;;;;;13.90;99.90;;;;;;5077100;28;20548;-71
2022/04/25 09:23:41;;;;;;;;;;;14.10;99.90;;;;;;5089929;28;19940;-71
2022/04/25 09:26:11;;;;;;;;;;;14.30;99.90;;;;;;5075552;28;20330;-71
2022/04/25 09:28:47;;;;;;;;;;;14.60;99.90;;;;;;5081481;28;19968;-70
2022/04/25 09:31:14;;;;;;;;;;;14.70;99.90;;;;;;5072392;28;20402;-71
2022/04/25 09:33:42;;;;;;;;;;;15.00;99.90;;;;;;5077314;28;20023;-71
2022/04/25 09:36:09;;;;;;;;;;;15.20;99.90;;;;;;5084645;28;20401;-70
2022/04/25 09:38:36;;;;;;;;;;;15.40;99.90;;;;;;5085622;28;20091;-71
2022/04/25 09:41:03;;;;;;;;;;;15.60;99.90;;;;;;5082825;28;20500;-71
2022/04/25 09:43:30;;;;;;;;;;;15.70;99.90;;;;;;5078156;28;19929;-70
2022/04/25 09:45:59;;;;;;;;;;;15.70;99.90;;;;;;5083530;28;20312;-70
2022/04/25 09:48:26;;;;;;;;;;;15.60;99.90;;;;;;5080850;28;19932;-70
2022/04/25 09:51:00;;;;;;;;;;;15.50;99.90;;;;;;5071700;28;19931;-70
2022/04/25 09:53:40;;;;;;;;;;;15.50;99.90;;;;;;5083016;28;20466;-70
2022/04/25 09:56:10;;;;;;;;;;;15.50;99.90;;;;;;5079638;28;19970;-71
2022/04/25 09:58:40;;;;;;;;;;;15.70;99.90;;;;;;5100461;22;19969;-71
2022/04/25 10:01:12;;;;;;;;;;;15.80;99.90;;;;;;5122346;27;19951;-72
2022/04/25 10:03:38;;;;;;;;;;;15.80;99.90;;;;;;5123108;27;20003;-72
2022/04/25 10:06:06;;;;;;;;;;;15.90;99.90;;;;;;5128921;27;19931;-72
2022/04/25 10:08:35;;;;;;;;;;;16.10;99.90;;;;;;5118306;27;19924;-72
2022/04/25 10:11:02;;;;;;;;;;;16.40;99.90;;;;;;5113956;28;20301;-72
2022/04/25 10:13:31;;;;;;;;;;;16.60;99.90;;;;;;5109366;28;19945;-72
2022/04/25 10:15:57;;;;;;;;;;;16.80;99.90;;;;;;5106084;28;19930;-72
2022/04/25 10:18:26;;;;;;;;;;;17.30;99.90;;;;;;5111158;28;19927;-74
2022/04/25 10:20:52;;;;;;;;;;;17.70;99.90;;;;;;5104149;27;20056;-73
2022/04/25 10:23:20;;;;;;;;;;;18.10;99.90;;;;;;5112552;28;19928;-73
2022/04/25 10:25:47;;;;;;;;;;;18.30;99.90;;;;;;5108811;28;19928;-74
2022/04/25 10:28:15;;;;;;;;;;;18.70;99.90;;;;;;5113205;28;20440;-72
2022/04/25 10:30:46;;;;;;;;;;;18.80;99.90;;;;;;5108156;27;19924;-73
2022/04/25 10:33:16;;;;;;;;;;;18.80;99.90;;;;;;5116843;28;19950;-73
2022/04/25 10:35:43;;;;;;;;;;;18.90;99.90;;;;;;5110169;28;19964;-73
2022/04/25 10:38:47;;;;;;;;;;;19.10;99.90;;;;;;5112612;27;19977;-74
2022/04/25 10:44:33;;;;;;;;;;;19.20;99.90;;;;;;5113724;27;19937;-72
2022/04/25 10:47:11;;;;;;;;;;;19.00;99.90;;;;;;5103548;27;19931;-73
2022/04/25 10:49:40;;;;;;;;;;;19.00;99.90;;;;;;5113107;28;19997;-73
2022/04/25 10:52:26;;;;;;;;;;;19.00;99.90;;;;;;5115077;28;20302;-74
2022/04/25 10:55:10;;;;;;;;;;;19.10;99.90;;;;;;5118388;28;20359;-74
2022/04/25 10:57:37;;;;;;;;;;;19.00;99.90;;;;;;5115963;28;20155;-73
2022/04/25 11:00:04;;;;;;;;;;;18.90;99.90;;;;;;5110640;27;19950;-75
2022/04/25 11:02:30;;;;;;;;;;;19.20;99.90;;;;;;5106656;28;19924;-73
2022/04/25 11:05:14;;;;;;;;;;;19.60;99.90;;;;;;5111679;28;19985;-74
2022/04/25 11:07:42;;;;;;;;;;;19.80;99.90;;;;;;5104665;28;19923;-74
2022/04/25 11:10:30;;;;;;;;;;;19.90;99.90;;;;;;5112757;28;20385;-74
2022/04/25 11:12:57;;;;;;;;;;;19.80;99.90;;;;;;5106892;28;19924;-74
2022/04/25 11:15:39;;;;;;;;;;;19.40;99.90;;;;;;5112549;28;20351;-74
2022/04/25 11:18:21;;;;;;;;;;;19.10;99.90;;;;;;5103898;28;19985;-73
2022/04/25 11:20:58;;;;;;;;;;;18.80;99.90;;;;;;5108028;28;20018;-73
2022/04/25 11:23:26;;;;;;;;;;;18.60;99.90;;;;;;5113716;28;20392;-73
2022/04/25 11:25:56;;;;;;;;;;;18.60;99.90;;;;;;5100794;28;19975;-75
2022/04/25 11:28:23;;;;;;;;;;;18.90;99.90;;;;;;5102870;28;20450;-73
2022/04/25 11:31:09;;;;;;;;;;;19.20;99.90;;;;;;5110714;28;19924;-73
2022/04/25 11:33:40;;;;;;;;;;;19.50;99.90;;;;;;5098670;28;19963;-74
2022/04/25 11:36:07;;;;;;;;;;;19.60;99.90;;;;;;5108338;28;19962;-75
2022/04/25 11:41:18;;;;;;;;;;;20.20;99.90;;;;;;5133966;27;20314;-74
2022/04/25 11:43:45;;;;;;;;;;;20.20;99.90;;;;;;5125321;28;19932;-72
2022/04/25 11:46:11;;;;;;;;;;;19.90;99.90;;;;;;5109516;28;19924;-73
2022/04/25 11:48:38;;;;;;;;;;;19.60;99.90;;;;;;5102239;28;19924;-74
2022/04/25 11:51:04;;;;;;;;;;;19.50;99.90;;;;;;5106034;28;19936;-72
2022/04/25 11:53:32;;;;;;;;;;;19.50;99.90;;;;;;5105528;28;19923;-71
2022/04/25 11:56:01;;;;;;;;;;;19.30;99.90;;;;;;5096756;28;20023;-72
2022/04/25 11:58:32;;;;;;;;;;;19.00;99.90;;;;;;5100746;28;19928;-72
2022/04/25 12:00:58;;;;;;;;;;;18.80;99.90;;;;;;5101975;28;19977;-73
2022/04/25 12:03:25;;;;;;;;;;;18.60;99.90;;;;;;5099567;28;19935;-72
2022/04/25 12:05:51;;;;;;;;;;;18.40;99.90;;;;;;5104281;28;19924;-73
2022/04/25 12:16:33;;;;;;;;;;;19.40;99.90;;;;;;5109909;28;19931;-73
2022/04/25 12:19:01;;;;;;;;;;;20.30;99.90;;;;;;5113474;28;19936;-72
2022/04/25 12:21:28;;;;;;;;;;;20.80;99.90;;;;;;5108547;28;19935;-73
2022/04/25 12:23:55;;;;;;;;;;;21.30;99.90;;;;;;5114683;28;19931;-72
2022/04/25 12:26:22;;;;;;;;;;;21.90;99.90;;;;;;5116243;27;19923;-71
2022/04/25 12:28:51;;;;;;;;;;;22.40;99.90;;;;;;5110626;27;20381;-72
2022/04/25 12:31:19;;;;;;;;;;;22.80;99.90;;;;;;5109415;28;19935;-72
2022/04/25 12:33:46;;;;;;;;;;;23.00;99.90;;;;;;5110859;28;20508;-72
2022/04/25 12:36:16;;;;;;;;;;;22.90;99.90;;;;;;5105702;28;20347;-75
2022/04/25 12:38:44;;;;;;;;;;;23.00;99.90;;;;;;5107527;28;20278;-73
2022/04/25 12:41:11;;;;;;;;;;;22.70;99.90;;;;;;5099510;28;19931;-73
2022/04/25 12:43:43;;;;;;;;;;;22.40;99.90;;;;;;5107621;27;20369;-73
2022/04/25 12:46:11;;;;;;;;;;;21.70;99.90;;;;;;5106100;28;19935;-73
2022/04/25 12:48:57;;;;;;;;;;;21.10;99.90;;;;;;5111547;28;20347;-73
2022/04/25 12:51:28;;;;;;;;;;;20.50;99.90;;;;;;5108283;27;20385;-72
2022/04/25 12:53:54;;;;;;;;;;;19.90;99.90;;;;;;5108867;28;19928;-72
2022/04/25 12:56:22;;;;;;;;;;;19.40;99.90;;;;;;5108797;28;19928;-71
2022/04/25 12:58:49;;;;;;;;;;;19.10;99.90;;;;;;5102898;27;19994;-73
2022/04/25 13:01:26;;;;;;;;;;;18.50;99.90;;;;;;5106352;27;19979;-71
2022/04/25 13:04:10;;;;;;;;;;;18.20;99.90;;;;;;5103638;27;19945;-71
2022/04/25 13:06:37;;;;;;;;;;;17.90;99.90;;;;;;5100514;28;19932;-71
2022/04/25 13:09:04;;;;;;;;;;;17.60;99.90;;;;;;5118470;27;20405;-70
2022/04/25 13:11:31;;;;;;;;;;;17.30;99.90;;;;;;5112951;28;20280;-71
2022/04/25 13:13:58;;;;;;;;;;;17.10;99.90;;;;;;5105021;27;20083;-71
2022/04/25 13:16:24;;;;;;;;;;;16.90;99.90;;;;;;5114670;28;19975;-71
2022/04/25 13:18:52;;;;;;;;;;;16.60;99.90;;;;;;5109572;27;20010;-71
2022/04/25 13:21:19;;;;;;;;;;;16.50;99.90;;;;;;5102192;28;19924;-71
2022/04/25 13:23:47;;;;;;;;;;;16.30;99.90;;;;;;5109158;28;19949;-71
2022/04/25 13:26:14;;;;;;;;;;;16.20;99.90;;;;;;5109272;28;19924;-71
2022/04/25 13:28:41;;;;;;;;;;;16.00;99.90;;;;;;5121084;28;19932;-71
2022/04/25 13:31:07;;;;;;;;;;;15.90;99.90;;;;;;5115321;27;19946;-71
2022/04/25 13:33:34;;;;;;;;;;;15.70;99.90;;;;;;5109426;28;19928;-71
2022/04/25 13:36:02;;;;;;;;;;;15.40;99.90;;;;;;5109145;28;19924;-71
2022/04/25 13:38:29;;;;;;;;;;;14.90;99.90;;;;;;5101147;28;19924;-71
2022/04/25 13:40:55;;;;;;;;;;;14.40;99.90;;;;;;5096492;28;19978;-71
2022/04/25 13:43:22;;;;;;;;;;;13.80;99.90;;;;;;5113914;28;20347;-71
2022/04/25 13:45:48;;;;;;;;;;;13.60;99.90;;;;;;5127217;27;19927;-71
2022/04/25 13:48:16;;;;;;;;;;;13.30;99.90;;;;;;5117477;28;19928;-71
2022/04/25 13:50:43;;;;;;;;;;;13.00;99.90;;;;;;5106782;28;20023;-71
2022/04/25 13:53:11;;;;;;;;;;;12.70;99.90;;;;;;5119254;28;19966;-71
2022/04/25 13:55:38;;;;;;;;;;;12.60;99.90;;;;;;5112987;28;19967;-71
2022/04/25 13:58:05;;;;;;;;;;;12.60;99.90;;;;;;5115370;28;19949;-71
2022/04/25 14:00:31;;;;;;;;;;;12.60;99.90;;;;;;5107048;27;19967;-72
2022/04/25 14:03:08;;;;;;;;;;;12.40;99.90;;;;;;5110349;28;19949;-71
2022/04/25 14:05:36;;;;;;;;;;;12.10;99.90;;;;;;5103205;27;20019;-71
2022/04/25 14:08:02;;;;;;;;;;;11.90;99.90;;;;;;5104621;28;19946;-71
2022/04/25 14:10:30;;;;;;;;;;;11.60;99.90;;;;;;5120803;27;19928;-71
2022/04/25 14:12:57;;;;;;;;;;;11.30;99.90;;;;;;5103524;27;19924;-71
2022/04/25 14:15:24;;;;;;;;;;;10.90;99.90;;;;;;5107206;28;19927;-68
2022/04/25 14:17:50;;;;;;;;;;;10.90;99.90;;;;;;5106583;28;19924;-70
2022/04/25 14:20:17;;;;;;;;;;;10.80;99.90;;;;;;5101735;28;19980;-69
2022/04/25 14:22:43;;;;;;;;;;;10.70;99.90;;;;;;5093295;28;20332;-69
2022/04/25 14:25:10;;;;;;;;;;;10.70;99.90;;;;;;5110554;28;19927;-70
2022/04/25 14:27:38;;;;;;;;;;;10.70;99.90;;;;;;5107002;28;19985;-70
2022/04/25 14:30:05;;;;;;;;;;;10.80;99.90;;;;;;5106657;27;19931;-71
2022/04/25 14:32:34;;;;;;;;;;;11.00;99.90;;;;;;5109890;28;19967;-70
2022/04/25 14:35:00;;;;;;;;;;;11.40;99.90;;;;;;5108457;28;19974;-71
2022/04/25 14:37:27;;;;;;;;;;;12.10;99.90;;;;;;5099600;28;20401;-71
2022/04/25 14:39:53;;;;;;;;;;;12.80;99.90;;;;;;5115119;27;19923;-75
2022/04/25 14:42:20;;;;;;;;;;;13.90;99.90;;;;;;5120163;27;19927;-73
2022/04/25 14:44:48;;;;;;;;;;;14.90;99.90;;;;;;5102454;28;19924;-72
2022/04/25 14:47:14;;;;;;;;;;;15.50;99.90;;;;;;5096641;28;19924;-72
2022/04/25 14:55:09;;;;;;;;;;;18.20;99.90;;;;;;5123929;28;19927;-72
2022/04/25 14:57:36;;;;;;;;;;;19.70;99.90;;;;;;5131655;28;20023;-71
2022/04/25 15:00:04;;;;;;;;;;;20.60;99.90;;;;;;5118925;27;20289;-72
2022/04/25 15:02:31;;;;;;;;;;;21.30;99.90;;;;;;5107200;28;20022;-74
2022/04/25 15:04:57;;;;;;;;;;;22.10;99.90;;;;;;5105390;28;19977;-73
2022/04/25 15:07:24;;;;;;;;;;;22.70;99.90;;;;;;5105158;28;19927;-72
2022/04/25 15:09:50;;;;;;;;;;;23.60;99.90;;;;;;5109548;28;20391;-75